首页
METAR-TAF:

METAR-TAF

机场 :

莫林, 伊利诺伊州, 美国

纬度: 41-27-05N, 经度: 090-30-53W, 海拔: 179米

当前天气观测

该预报发布于1小时和13分钟前的23:52 UTC
风速10节,风向南转南东,有时为22节阵风
温度 26°C
湿度 65%
气压 1011 hPa
能見度: 16.1公里
天空无云

METAR: KMLI 262352Z 15010G22KT 10SM CLR 26/19 A2984 RMK AO2 PK WND 15027/2254 SLP102 T02610194 10306 20256 51005

时间: 20:05 (01:05 UTC)

预报

该预报发布于1小时和35分钟前的23:30 UTC
预报有效从27日的 00点(UTC)到 28日的 06点(UTC)
风速15节,风向南转南东,有时为25节阵风
能見度: 10公里
散云层高于5000英尺
从 27日的 0200点(UTC)
风速10节,风向南转南东
能見度: 10公里
多云层高于10000英尺
从 27日的 1700点(UTC)
风速7节,风向南转南东
能見度: 10公里
阴天层高于6000英尺

TAF: KMLI 262330Z 2700/2806 16015G25KT P6SM SCT050 FM270200 16010KT P6SM BKN100 FM271700 15007KT P6SM OVC060

超过4000个机场的气象观测和天气预报(METAR&TAF报告)。

可查询的气象台以黄色和红色小点在地图上表示。

将鼠标移到小点上方,可查看气象台名称。

然后点击查看天气观测和预报。

如需切换地图:点击带黑十字的绿色按钮放大地图;点击带横线的绿色按钮缩小地图;或者点击绿色箭头查看邻近地区的地图。


METAR-TAF: